sensor_id;sensor_type;location;lat;lon;timestamp;P1;durP1;ratioP1;P2;durP2;ratioP2
209;SDS011;90;48.810;9.120;2023-02-25T00:01:33;10.98;;;7.13;;
209;SDS011;90;48.810;9.120;2023-02-25T00:04:00;11.70;;;7.00;;
209;SDS011;90;48.810;9.120;2023-02-25T00:06:28;11.63;;;6.93;;
209;SDS011;90;48.810;9.120;2023-02-25T00:08:55;12.30;;;7.23;;
209;SDS011;90;48.810;9.120;2023-02-25T00:11:23;13.20;;;7.43;;
209;SDS011;90;48.810;9.120;2023-02-25T00:13:51;13.80;;;7.60;;
209;SDS011;90;48.810;9.120;2023-02-25T00:16:21;8.27;;;6.43;;
209;SDS011;90;48.810;9.120;2023-02-25T00:18:51;15.93;;;7.63;;
209;SDS011;90;48.810;9.120;2023-02-25T00:21:19;19.50;;;8.27;;
209;SDS011;90;48.810;9.120;2023-02-25T00:23:47;14.02;;;7.57;;
209;SDS011;90;48.810;9.120;2023-02-25T00:26:15;9.70;;;7.35;;
209;SDS011;90;48.810;9.120;2023-02-25T00:28:43;11.00;;;7.60;;
209;SDS011;90;48.810;9.120;2023-02-25T00:31:13;15.00;;;7.80;;
209;SDS011;90;48.810;9.120;2023-02-25T00:33:43;11.57;;;7.70;;
209;SDS011;90;48.810;9.120;2023-02-25T00:36:11;13.82;;;7.90;;
209;SDS011;90;48.810;9.120;2023-02-25T00:38:43;15.90;;;8.07;;
209;SDS011;90;48.810;9.120;2023-02-25T00:41:12;14.97;;;8.00;;
209;SDS011;90;48.810;9.120;2023-02-25T00:43:41;17.60;;;7.73;;
209;SDS011;90;48.810;9.120;2023-02-25T00:46:09;15.50;;;8.05;;
209;SDS011;90;48.810;9.120;2023-02-25T00:48:37;15.37;;;8.80;;
209;SDS011;90;48.810;9.120;2023-02-25T00:51:06;14.18;;;7.70;;
209;SDS011;90;48.810;9.120;2023-02-25T00:53:35;11.93;;;7.55;;
209;SDS011;90;48.810;9.120;2023-02-25T00:56:03;14.25;;;7.75;;
209;SDS011;90;48.810;9.120;2023-02-25T00:58:33;14.93;;;8.05;;
209;SDS011;90;48.810;9.120;2023-02-25T01:01:01;12.90;;;7.10;;
209;SDS011;90;48.810;9.120;2023-02-25T01:03:28;10.85;;;6.95;;
209;SDS011;90;48.810;9.120;2023-02-25T01:05:55;9.10;;;6.30;;
209;SDS011;90;48.810;9.120;2023-02-25T01:08:23;9.77;;;6.53;;
209;SDS011;90;48.810;9.120;2023-02-25T01:10:50;9.25;;;6.50;;
209;SDS011;90;48.810;9.120;2023-02-25T01:13:18;8.32;;;6.13;;
209;SDS011;90;48.810;9.120;2023-02-25T01:15:45;12.18;;;7.07;;
209;SDS011;90;48.810;9.120;2023-02-25T01:18:12;11.25;;;6.95;;
209;SDS011;90;48.810;9.120;2023-02-25T01:20:39;11.65;;;6.13;;
209;SDS011;90;48.810;9.120;2023-02-25T01:23:06;9.40;;;6.50;;
209;SDS011;90;48.810;9.120;2023-02-25T01:25:34;9.73;;;6.05;;
209;SDS011;90;48.810;9.120;2023-02-25T01:28:05;9.75;;;6.13;;
209;SDS011;90;48.810;9.120;2023-02-25T01:30:34;10.32;;;6.38;;
209;SDS011;90;48.810;9.120;2023-02-25T01:33:02;8.05;;;5.53;;
209;SDS011;90;48.810;9.120;2023-02-25T01:35:29;9.88;;;6.10;;
209;SDS011;90;48.810;9.120;2023-02-25T01:37:56;7.60;;;5.35;;
209;SDS011;90;48.810;9.120;2023-02-25T01:40:23;9.50;;;5.20;;
209;SDS011;90;48.810;9.120;2023-02-25T01:42:51;11.18;;;6.10;;
209;SDS011;90;48.810;9.120;2023-02-25T01:45:23;8.20;;;5.40;;
209;SDS011;90;48.810;9.120;2023-02-25T01:48:05;7.47;;;5.60;;
209;SDS011;90;48.810;9.120;2023-02-25T01:50:41;5.97;;;5.10;;
209;SDS011;90;48.810;9.120;2023-02-25T01:53:12;9.38;;;5.82;;
209;SDS011;90;48.810;9.120;2023-02-25T01:55:41;4.88;;;4.60;;
209;SDS011;90;48.810;9.120;2023-02-25T01:58:10;9.00;;;5.07;;
209;SDS011;90;48.810;9.120;2023-02-25T02:00:38;7.38;;;5.15;;
209;SDS011;90;48.810;9.120;2023-02-25T02:03:05;8.52;;;5.32;;
209;SDS011;90;48.810;9.120;2023-02-25T02:05:43;13.82;;;4.85;;
209;SDS011;90;48.810;9.120;2023-02-25T02:08:18;8.13;;;5.18;;
209;SDS011;90;48.810;9.120;2023-02-25T02:10:45;10.07;;;5.25;;
209;SDS011;90;48.810;9.120;2023-02-25T02:13:13;7.45;;;5.60;;
209;SDS011;90;48.810;9.120;2023-02-25T02:15:42;9.63;;;4.60;;
209;SDS011;90;48.810;9.120;2023-02-25T02:18:14;10.25;;;5.00;;
209;SDS011;90;48.810;9.120;2023-02-25T02:20:43;10.13;;;5.43;;
209;SDS011;90;48.810;9.120;2023-02-25T02:26:27;6.38;;;5.13;;
209;SDS011;90;48.810;9.120;2023-02-25T02:29:25;6.38;;;4.90;;
209;SDS011;90;48.810;9.120;2023-02-25T02:32:15;8.32;;;5.43;;
209;SDS011;90;48.810;9.120;2023-02-25T02:34:55;11.65;;;5.47;;
209;SDS011;90;48.810;9.120;2023-02-25T02:37:35;9.38;;;5.10;;
209;SDS011;90;48.810;9.120;2023-02-25T02:40:13;8.70;;;5.65;;
209;SDS011;90;48.810;9.120;2023-02-25T02:42:50;7.57;;;4.72;;
209;SDS011;90;48.810;9.120;2023-02-25T02:45:33;7.00;;;5.15;;
209;SDS011;90;48.810;9.120;2023-02-25T02:48:09;7.38;;;5.00;;
209;SDS011;90;48.810;9.120;2023-02-25T02:50:39;8.07;;;5.50;;
209;SDS011;90;48.810;9.120;2023-02-25T02:53:09;8.57;;;4.90;;
209;SDS011;90;48.810;9.120;2023-02-25T02:55:40;8.23;;;5.10;;
209;SDS011;90;48.810;9.120;2023-02-25T02:58:13;8.80;;;5.78;;
209;SDS011;90;48.810;9.120;2023-02-25T03:00:47;7.22;;;5.60;;
209;SDS011;90;48.810;9.120;2023-02-25T03:03:21;5.90;;;4.85;;
209;SDS011;90;48.810;9.120;2023-02-25T03:06:00;6.25;;;4.85;;
209;SDS011;90;48.810;9.120;2023-02-25T03:08:28;7.38;;;5.25;;
209;SDS011;90;48.810;9.120;2023-02-25T03:10:58;6.55;;;4.20;;
209;SDS011;90;48.810;9.120;2023-02-25T03:13:25;16.15;;;5.00;;
209;SDS011;90;48.810;9.120;2023-02-25T03:15:52;6.90;;;4.70;;
209;SDS011;90;48.810;9.120;2023-02-25T03:18:23;6.10;;;5.40;;
209;SDS011;90;48.810;9.120;2023-02-25T03:20:54;8.23;;;4.90;;
209;SDS011;90;48.810;9.120;2023-02-25T03:23:24;7.30;;;4.68;;
209;SDS011;90;48.810;9.120;2023-02-25T03:25:55;7.32;;;4.40;;
209;SDS011;90;48.810;9.120;2023-02-25T03:28:30;5.65;;;4.55;;
209;SDS011;90;48.810;9.120;2023-02-25T03:31:00;4.20;;;4.00;;
209;SDS011;90;48.810;9.120;2023-02-25T03:33:33;12.60;;;4.40;;
209;SDS011;90;48.810;9.120;2023-02-25T03:36:04;7.82;;;4.18;;
209;SDS011;90;48.810;9.120;2023-02-25T03:38:36;4.63;;;3.90;;
209;SDS011;90;48.810;9.120;2023-02-25T03:41:08;7.35;;;3.47;;
209;SDS011;90;48.810;9.120;2023-02-25T03:43:39;5.13;;;3.88;;
209;SDS011;90;48.810;9.120;2023-02-25T03:46:09;3.90;;;3.70;;
209;SDS011;90;48.810;9.120;2023-02-25T03:48:44;3.35;;;3.20;;
209;SDS011;90;48.810;9.120;2023-02-25T03:51:13;3.63;;;3.45;;
209;SDS011;90;48.810;9.120;2023-02-25T03:53:43;3.60;;;3.45;;
209;SDS011;90;48.810;9.120;2023-02-25T03:56:11;9.40;;;3.60;;
209;SDS011;90;48.810;9.120;2023-02-25T03:58:39;4.18;;;3.00;;
209;SDS011;90;48.810;9.120;2023-02-25T04:01:08;7.95;;;3.38;;
209;SDS011;90;48.810;9.120;2023-02-25T04:03:40;6.22;;;3.55;;
209;SDS011;90;48.810;9.120;2023-02-25T04:06:08;4.10;;;3.40;;
209;SDS011;90;48.810;9.120;2023-02-25T04:08:36;3.38;;;3.00;;
209;SDS011;90;48.810;9.120;2023-02-25T04:11:03;3.63;;;3.05;;
209;SDS011;90;48.810;9.120;2023-02-25T04:13:30;3.90;;;3.10;;
209;SDS011;90;48.810;9.120;2023-02-25T04:15:57;4.97;;;3.42;;
209;SDS011;90;48.810;9.120;2023-02-25T04:18:24;7.15;;;3.30;;
209;SDS011;90;48.810;9.120;2023-02-25T04:20:53;4.50;;;3.50;;
209;SDS011;90;48.810;9.120;2023-02-25T04:23:20;4.78;;;3.03;;
209;SDS011;90;48.810;9.120;2023-02-25T04:25:47;6.15;;;3.38;;
209;SDS011;90;48.810;9.120;2023-02-25T04:28:14;5.95;;;2.92;;
209;SDS011;90;48.810;9.120;2023-02-25T04:30:41;4.72;;;2.95;;
209;SDS011;90;48.810;9.120;2023-02-25T04:33:09;3.00;;;2.80;;
209;SDS011;90;48.810;9.120;2023-02-25T04:35:36;3.90;;;3.30;;
209;SDS011;90;48.810;9.120;2023-02-25T04:38:04;4.65;;;2.90;;
209;SDS011;90;48.810;9.120;2023-02-25T04:40:32;6.75;;;2.70;;
209;SDS011;90;48.810;9.120;2023-02-25T04:42:59;6.35;;;2.90;;
209;SDS011;90;48.810;9.120;2023-02-25T04:45:26;5.90;;;3.30;;
209;SDS011;90;48.810;9.120;2023-02-25T04:47:53;8.32;;;3.30;;
209;SDS011;90;48.810;9.120;2023-02-25T04:50:22;4.35;;;3.15;;
209;SDS011;90;48.810;9.120;2023-02-25T04:52:50;4.43;;;2.83;;
209;SDS011;90;48.810;9.120;2023-02-25T04:55:18;8.07;;;4.25;;
209;SDS011;90;48.810;9.120;2023-02-25T04:57:46;5.50;;;2.90;;
209;SDS011;90;48.810;9.120;2023-02-25T05:00:14;4.95;;;2.88;;
209;SDS011;90;48.810;9.120;2023-02-25T05:02:44;3.85;;;2.83;;
209;SDS011;90;48.810;9.120;2023-02-25T05:05:12;5.68;;;3.58;;
209;SDS011;90;48.810;9.120;2023-02-25T05:07:39;4.05;;;3.13;;
209;SDS011;90;48.810;9.120;2023-02-25T05:10:06;3.40;;;2.83;;
209;SDS011;90;48.810;9.120;2023-02-25T05:12:36;4.90;;;2.90;;
209;SDS011;90;48.810;9.120;2023-02-25T05:15:03;4.38;;;2.90;;
209;SDS011;90;48.810;9.120;2023-02-25T05:17:32;3.55;;;2.80;;
209;SDS011;90;48.810;9.120;2023-02-25T05:19:59;6.07;;;2.30;;
209;SDS011;90;48.810;9.120;2023-02-25T05:22:29;3.50;;;2.40;;
209;SDS011;90;48.810;9.120;2023-02-25T05:24:57;3.42;;;2.60;;
209;SDS011;90;48.810;9.120;2023-02-25T05:27:24;2.78;;;2.53;;
209;SDS011;90;48.810;9.120;2023-02-25T05:29:53;3.80;;;2.20;;
209;SDS011;90;48.810;9.120;2023-02-25T05:32:20;2.78;;;2.22;;
209;SDS011;90;48.810;9.120;2023-02-25T05:34:47;3.35;;;2.08;;
209;SDS011;90;48.810;9.120;2023-02-25T05:37:14;4.05;;;2.45;;
209;SDS011;90;48.810;9.120;2023-02-25T05:39:41;2.67;;;2.13;;
209;SDS011;90;48.810;9.120;2023-02-25T05:42:08;4.35;;;1.98;;
209;SDS011;90;48.810;9.120;2023-02-25T05:44:35;5.72;;;2.35;;
209;SDS011;90;48.810;9.120;2023-02-25T05:47:03;4.80;;;2.53;;
209;SDS011;90;48.810;9.120;2023-02-25T05:49:31;3.88;;;2.00;;
209;SDS011;90;48.810;9.120;2023-02-25T05:51:58;4.18;;;2.40;;
209;SDS011;90;48.810;9.120;2023-02-25T05:54:25;7.10;;;2.60;;
209;SDS011;90;48.810;9.120;2023-02-25T05:56:52;5.72;;;3.00;;
209;SDS011;90;48.810;9.120;2023-02-25T05:59:19;6.68;;;3.90;;
209;SDS011;90;48.810;9.120;2023-02-25T06:01:46;5.47;;;3.85;;
209;SDS011;90;48.810;9.120;2023-02-25T06:04:14;5.50;;;3.38;;
209;SDS011;90;48.810;9.120;2023-02-25T06:06:42;6.65;;;3.97;;
209;SDS011;90;48.810;9.120;2023-02-25T06:09:14;9.43;;;3.90;;
209;SDS011;90;48.810;9.120;2023-02-25T06:11:43;4.50;;;3.08;;
209;SDS011;90;48.810;9.120;2023-02-25T06:14:11;5.72;;;2.80;;
209;SDS011;90;48.810;9.120;2023-02-25T06:16:39;6.45;;;3.15;;
209;SDS011;90;48.810;9.120;2023-02-25T06:19:08;5.60;;;2.95;;
209;SDS011;90;48.810;9.120;2023-02-25T06:21:38;4.68;;;2.65;;
209;SDS011;90;48.810;9.120;2023-02-25T06:24:06;2.63;;;2.42;;
209;SDS011;90;48.810;9.120;2023-02-25T06:26:34;2.88;;;2.20;;
209;SDS011;90;48.810;9.120;2023-02-25T06:29:06;3.15;;;2.45;;
209;SDS011;90;48.810;9.120;2023-02-25T06:31:34;2.53;;;2.17;;
209;SDS011;90;48.810;9.120;2023-02-25T06:34:02;7.72;;;3.65;;
209;SDS011;90;48.810;9.120;2023-02-25T06:36:29;3.60;;;2.50;;
209;SDS011;90;48.810;9.120;2023-02-25T06:38:58;3.13;;;2.67;;
209;SDS011;90;48.810;9.120;2023-02-25T06:41:25;3.88;;;2.70;;
209;SDS011;90;48.810;9.120;2023-02-25T06:43:53;5.07;;;2.47;;
209;SDS011;90;48.810;9.120;2023-02-25T06:46:21;3.28;;;2.45;;
209;SDS011;90;48.810;9.120;2023-02-25T06:48:50;4.45;;;2.72;;
209;SDS011;90;48.810;9.120;2023-02-25T06:51:18;8.05;;;2.70;;
209;SDS011;90;48.810;9.120;2023-02-25T06:53:47;3.88;;;2.50;;
209;SDS011;90;48.810;9.120;2023-02-25T06:56:22;4.43;;;2.83;;
209;SDS011;90;48.810;9.120;2023-02-25T06:58:50;3.65;;;2.90;;
209;SDS011;90;48.810;9.120;2023-02-25T07:01:17;6.68;;;2.67;;
209;SDS011;90;48.810;9.120;2023-02-25T07:03:45;3.00;;;2.80;;
209;SDS011;90;48.810;9.120;2023-02-25T07:06:13;4.22;;;2.35;;
209;SDS011;90;48.810;9.120;2023-02-25T07:08:40;4.07;;;2.40;;
209;SDS011;90;48.810;9.120;2023-02-25T07:11:12;8.95;;;2.95;;
209;SDS011;90;48.810;9.120;2023-02-25T07:13:42;7.97;;;3.10;;
209;SDS011;90;48.810;9.120;2023-02-25T07:16:10;2.90;;;2.70;;
209;SDS011;90;48.810;9.120;2023-02-25T07:18:38;3.35;;;2.50;;
209;SDS011;90;48.810;9.120;2023-02-25T07:21:05;9.00;;;4.18;;
209;SDS011;90;48.810;9.120;2023-02-25T07:23:33;5.03;;;3.22;;
209;SDS011;90;48.810;9.120;2023-02-25T07:26:01;5.25;;;3.05;;
209;SDS011;90;48.810;9.120;2023-02-25T07:28:29;5.18;;;3.90;;
209;SDS011;90;48.810;9.120;2023-02-25T07:31:11;7.90;;;3.00;;
209;SDS011;90;48.810;9.120;2023-02-25T07:34:04;5.60;;;2.60;;
209;SDS011;90;48.810;9.120;2023-02-25T07:36:32;6.30;;;3.83;;
209;SDS011;90;48.810;9.120;2023-02-25T07:39:02;4.50;;;3.47;;
209;SDS011;90;48.810;9.120;2023-02-25T07:41:30;2.95;;;2.30;;
209;SDS011;90;48.810;9.120;2023-02-25T07:43:57;5.70;;;3.25;;
209;SDS011;90;48.810;9.120;2023-02-25T07:46:26;3.28;;;2.80;;
209;SDS011;90;48.810;9.120;2023-02-25T07:48:54;4.38;;;2.80;;
209;SDS011;90;48.810;9.120;2023-02-25T07:51:22;2.88;;;2.67;;
209;SDS011;90;48.810;9.120;2023-02-25T07:53:51;2.90;;;2.70;;
209;SDS011;90;48.810;9.120;2023-02-25T07:56:20;5.10;;;2.70;;
209;SDS011;90;48.810;9.120;2023-02-25T07:58:48;3.53;;;2.17;;
209;SDS011;90;48.810;9.120;2023-02-25T08:01:17;4.07;;;2.70;;
209;SDS011;90;48.810;9.120;2023-02-25T08:03:49;3.25;;;2.40;;
209;SDS011;90;48.810;9.120;2023-02-25T08:06:17;4.47;;;3.10;;
209;SDS011;90;48.810;9.120;2023-02-25T08:08:45;4.93;;;2.58;;
209;SDS011;90;48.810;9.120;2023-02-25T08:11:15;5.20;;;2.80;;
209;SDS011;90;48.810;9.120;2023-02-25T08:13:43;5.93;;;3.08;;
209;SDS011;90;48.810;9.120;2023-02-25T08:16:11;4.28;;;2.30;;
209;SDS011;90;48.810;9.120;2023-02-25T08:18:42;7.03;;;3.05;;
209;SDS011;90;48.810;9.120;2023-02-25T08:21:11;5.07;;;3.47;;
209;SDS011;90;48.810;9.120;2023-02-25T08:23:42;4.60;;;4.30;;
209;SDS011;90;48.810;9.120;2023-02-25T08:26:09;3.17;;;2.75;;
209;SDS011;90;48.810;9.120;2023-02-25T08:28:36;3.20;;;2.90;;
209;SDS011;90;48.810;9.120;2023-02-25T08:31:05;3.65;;;2.45;;
209;SDS011;90;48.810;9.120;2023-02-25T08:33:36;6.03;;;2.72;;
209;SDS011;90;48.810;9.120;2023-02-25T08:36:05;4.07;;;2.38;;
209;SDS011;90;48.810;9.120;2023-02-25T08:38:36;5.30;;;2.78;;
209;SDS011;90;48.810;9.120;2023-02-25T08:41:06;2.78;;;2.60;;
209;SDS011;90;48.810;9.120;2023-02-25T08:43:34;8.18;;;3.28;;
209;SDS011;90;48.810;9.120;2023-02-25T08:46:03;3.30;;;2.50;;
209;SDS011;90;48.810;9.120;2023-02-25T08:48:31;9.15;;;3.22;;
209;SDS011;90;48.810;9.120;2023-02-25T08:51:00;3.67;;;2.38;;
209;SDS011;90;48.810;9.120;2023-02-25T08:53:32;3.80;;;2.80;;
209;SDS011;90;48.810;9.120;2023-02-25T08:56:02;4.88;;;3.42;;
209;SDS011;90;48.810;9.120;2023-02-25T08:58:30;7.38;;;4.03;;
209;SDS011;90;48.810;9.120;2023-02-25T09:00:58;6.30;;;3.17;;
209;SDS011;90;48.810;9.120;2023-02-25T09:03:25;3.65;;;3.03;;
209;SDS011;90;48.810;9.120;2023-02-25T09:05:53;4.32;;;3.10;;
209;SDS011;90;48.810;9.120;2023-02-25T09:08:21;4.38;;;2.88;;
209;SDS011;90;48.810;9.120;2023-02-25T09:10:49;4.72;;;2.83;;
209;SDS011;90;48.810;9.120;2023-02-25T09:13:17;2.92;;;2.72;;
209;SDS011;90;48.810;9.120;2023-02-25T09:15:44;3.53;;;2.80;;
209;SDS011;90;48.810;9.120;2023-02-25T09:18:20;6.40;;;2.80;;
209;SDS011;90;48.810;9.120;2023-02-25T09:20:48;4.03;;;3.05;;
209;SDS011;90;48.810;9.120;2023-02-25T09:23:15;3.83;;;2.80;;
209;SDS011;90;48.810;9.120;2023-02-25T09:25:43;5.05;;;2.20;;
209;SDS011;90;48.810;9.120;2023-02-25T09:28:10;2.40;;;1.92;;
209;SDS011;90;48.810;9.120;2023-02-25T09:30:39;2.78;;;1.83;;
209;SDS011;90;48.810;9.120;2023-02-25T09:33:09;3.95;;;1.70;;
209;SDS011;90;48.810;9.120;2023-02-25T09:35:39;2.95;;;2.30;;
209;SDS011;90;48.810;9.120;2023-02-25T09:38:06;2.03;;;1.80;;
209;SDS011;90;48.810;9.120;2023-02-25T09:40:33;3.13;;;2.00;;
209;SDS011;90;48.810;9.120;2023-02-25T09:43:03;2.33;;;1.65;;
209;SDS011;90;48.810;9.120;2023-02-25T09:45:43;4.53;;;1.90;;
209;SDS011;90;48.810;9.120;2023-02-25T09:48:13;1.90;;;1.70;;
209;SDS011;90;48.810;9.120;2023-02-25T09:50:46;3.55;;;1.80;;
209;SDS011;90;48.810;9.120;2023-02-25T09:53:17;2.65;;;1.92;;
209;SDS011;90;48.810;9.120;2023-02-25T09:55:49;3.92;;;1.92;;
209;SDS011;90;48.810;9.120;2023-02-25T09:58:20;4.07;;;2.85;;
209;SDS011;90;48.810;9.120;2023-02-25T10:00:56;2.92;;;2.72;;
209;SDS011;90;48.810;9.120;2023-02-25T10:03:37;4.53;;;2.55;;
209;SDS011;90;48.810;9.120;2023-02-25T10:06:15;5.22;;;2.20;;
209;SDS011;90;48.810;9.120;2023-02-25T10:08:46;4.70;;;2.00;;
209;SDS011;90;48.810;9.120;2023-02-25T10:11:23;4.05;;;1.50;;
209;SDS011;90;48.810;9.120;2023-02-25T10:14:01;2.30;;;1.90;;
209;SDS011;90;48.810;9.120;2023-02-25T10:16:40;1.90;;;1.70;;
209;SDS011;90;48.810;9.120;2023-02-25T10:19:16;3.53;;;1.80;;
209;SDS011;90;48.810;9.120;2023-02-25T10:21:57;2.47;;;1.70;;
209;SDS011;90;48.810;9.120;2023-02-25T10:24:35;2.13;;;1.70;;
209;SDS011;90;48.810;9.120;2023-02-25T10:27:10;2.92;;;1.80;;
209;SDS011;90;48.810;9.120;2023-02-25T10:29:46;4.63;;;1.80;;
209;SDS011;90;48.810;9.120;2023-02-25T10:32:20;5.90;;;1.90;;
209;SDS011;90;48.810;9.120;2023-02-25T10:34:50;3.95;;;1.50;;
209;SDS011;90;48.810;9.120;2023-02-25T10:37:19;4.28;;;1.80;;
209;SDS011;90;48.810;9.120;2023-02-25T10:39:48;1.90;;;1.70;;
209;SDS011;90;48.810;9.120;2023-02-25T10:42:20;4.68;;;4.15;;
209;SDS011;90;48.810;9.120;2023-02-25T10:44:47;8.70;;;7.10;;
209;SDS011;90;48.810;9.120;2023-02-25T10:47:17;3.10;;;2.10;;
209;SDS011;90;48.810;9.120;2023-02-25T10:50:10;4.65;;;1.70;;
209;SDS011;90;48.810;9.120;2023-02-25T10:52:51;3.08;;;2.20;;
209;SDS011;90;48.810;9.120;2023-02-25T10:55:27;2.20;;;1.60;;
209;SDS011;90;48.810;9.120;2023-02-25T10:58:18;3.20;;;1.80;;
209;SDS011;90;48.810;9.120;2023-02-25T11:00:58;2.25;;;1.70;;
209;SDS011;90;48.810;9.120;2023-02-25T11:03:39;2.83;;;1.60;;
209;SDS011;90;48.810;9.120;2023-02-25T11:06:23;2.05;;;1.80;;
209;SDS011;90;48.810;9.120;2023-02-25T11:08:51;3.20;;;1.90;;
209;SDS011;90;48.810;9.120;2023-02-25T11:11:21;3.88;;;2.78;;
209;SDS011;90;48.810;9.120;2023-02-25T11:13:58;5.73;;;2.70;;
209;SDS011;90;48.810;9.120;2023-02-25T11:16:27;4.33;;;2.40;;
209;SDS011;90;48.810;9.120;2023-02-25T11:18:57;2.63;;;2.43;;
209;SDS011;90;48.810;9.120;2023-02-25T11:21:27;3.80;;;2.13;;
209;SDS011;90;48.810;9.120;2023-02-25T11:23:58;3.70;;;2.20;;
209;SDS011;90;48.810;9.120;2023-02-25T11:26:29;2.50;;;1.83;;
209;SDS011;90;48.810;9.120;2023-02-25T11:28:59;3.00;;;2.00;;
209;SDS011;90;48.810;9.120;2023-02-25T11:31:33;3.23;;;2.20;;
209;SDS011;90;48.810;9.120;2023-02-25T11:34:04;4.43;;;2.10;;
209;SDS011;90;48.810;9.120;2023-02-25T11:36:38;2.53;;;2.23;;
209;SDS011;90;48.810;9.120;2023-02-25T11:39:13;3.57;;;2.23;;
209;SDS011;90;48.810;9.120;2023-02-25T11:41:43;2.50;;;2.00;;
209;SDS011;90;48.810;9.120;2023-02-25T11:44:25;2.10;;;1.73;;
209;SDS011;90;48.810;9.120;2023-02-25T11:46:59;3.03;;;2.70;;
209;SDS011;90;48.810;9.120;2023-02-25T11:49:49;5.10;;;3.10;;
209;SDS011;90;48.810;9.120;2023-02-25T11:52:27;9.83;;;5.57;;
209;SDS011;90;48.810;9.120;2023-02-25T11:55:05;5.37;;;2.50;;
209;SDS011;90;48.810;9.120;2023-02-25T11:57:42;6.20;;;4.50;;
209;SDS011;90;48.810;9.120;2023-02-25T12:00:19;8.80;;;6.30;;
209;SDS011;90;48.810;9.120;2023-02-25T12:02:56;5.53;;;3.70;;
209;SDS011;90;48.810;9.120;2023-02-25T12:05:52;4.63;;;2.40;;
209;SDS011;90;48.810;9.120;2023-02-25T12:17:51;3.75;;;2.83;;
209;SDS011;90;48.810;9.120;2023-02-25T12:24:20;5.30;;;3.90;;
209;SDS011;90;48.810;9.120;2023-02-25T12:27:26;9.48;;;6.28;;
209;SDS011;90;48.810;9.120;2023-02-25T12:30:18;7.03;;;4.22;;
209;SDS011;90;48.810;9.120;2023-02-25T12:33:05;6.03;;;3.60;;
209;SDS011;90;48.810;9.120;2023-02-25T12:38:54;4.88;;;3.70;;
209;SDS011;90;48.810;9.120;2023-02-25T12:41:59;7.07;;;3.42;;
209;SDS011;90;48.810;9.120;2023-02-25T12:44:53;3.50;;;3.33;;
209;SDS011;90;48.810;9.120;2023-02-25T12:47:38;8.50;;;3.35;;
209;SDS011;90;48.810;9.120;2023-02-25T12:50:27;3.85;;;3.22;;
209;SDS011;90;48.810;9.120;2023-02-25T12:53:15;4.22;;;3.50;;
209;SDS011;90;48.810;9.120;2023-02-25T12:58:59;5.53;;;2.95;;
209;SDS011;90;48.810;9.120;2023-02-25T13:01:57;5.30;;;3.50;;
209;SDS011;90;48.810;9.120;2023-02-25T13:04:49;8.30;;;3.90;;
209;SDS011;90;48.810;9.120;2023-02-25T13:10:38;7.38;;;3.72;;
209;SDS011;90;48.810;9.120;2023-02-25T13:16:19;4.18;;;3.40;;
209;SDS011;90;48.810;9.120;2023-02-25T13:18:58;6.97;;;3.90;;
209;SDS011;90;48.810;9.120;2023-02-25T13:21:56;5.47;;;3.63;;
209;SDS011;90;48.810;9.120;2023-02-25T13:24:32;5.40;;;3.47;;
209;SDS011;90;48.810;9.120;2023-02-25T13:27:15;3.20;;;3.00;;
209;SDS011;90;48.810;9.120;2023-02-25T13:29:57;4.50;;;3.13;;
209;SDS011;90;48.810;9.120;2023-02-25T13:32:48;8.50;;;3.00;;
209;SDS011;90;48.810;9.120;2023-02-25T13:35:24;5.75;;;4.22;;
209;SDS011;90;48.810;9.120;2023-02-25T13:38:04;6.50;;;3.90;;
209;SDS011;90;48.810;9.120;2023-02-25T13:40:49;4.22;;;3.30;;
209;SDS011;90;48.810;9.120;2023-02-25T13:43:28;5.50;;;3.70;;
209;SDS011;90;48.810;9.120;2023-02-25T13:46:13;6.93;;;4.80;;
209;SDS011;90;48.810;9.120;2023-02-25T13:49:07;3.95;;;3.42;;
209;SDS011;90;48.810;9.120;2023-02-25T13:55:15;3.70;;;2.67;;
209;SDS011;90;48.810;9.120;2023-02-25T13:58:04;4.15;;;2.67;;
209;SDS011;90;48.810;9.120;2023-02-25T14:00:50;5.40;;;2.72;;
209;SDS011;90;48.810;9.120;2023-02-25T14:06:37;3.70;;;2.40;;
209;SDS011;90;48.810;9.120;2023-02-25T14:09:16;3.97;;;2.50;;
209;SDS011;90;48.810;9.120;2023-02-25T14:12:01;8.37;;;2.90;;
209;SDS011;90;48.810;9.120;2023-02-25T14:14:39;8.23;;;3.95;;
209;SDS011;90;48.810;9.120;2023-02-25T14:17:33;4.97;;;2.70;;
209;SDS011;90;48.810;9.120;2023-02-25T14:20:16;6.40;;;3.40;;
209;SDS011;90;48.810;9.120;2023-02-25T14:22:53;14.60;;;3.13;;
209;SDS011;90;48.810;9.120;2023-02-25T14:25:35;3.50;;;2.50;;
209;SDS011;90;48.810;9.120;2023-02-25T14:28:14;4.23;;;3.20;;
209;SDS011;90;48.810;9.120;2023-02-25T14:30:55;6.30;;;3.07;;
209;SDS011;90;48.810;9.120;2023-02-25T14:33:38;5.17;;;2.60;;
209;SDS011;90;48.810;9.120;2023-02-25T14:36:24;6.27;;;2.80;;
209;SDS011;90;48.810;9.120;2023-02-25T14:39:14;4.80;;;3.28;;
209;SDS011;90;48.810;9.120;2023-02-25T14:41:58;4.23;;;3.10;;
209;SDS011;90;48.810;9.120;2023-02-25T14:44:39;4.57;;;2.83;;
209;SDS011;90;48.810;9.120;2023-02-25T14:47:12;5.80;;;3.77;;
209;SDS011;90;48.810;9.120;2023-02-25T14:49:46;3.53;;;2.50;;
209;SDS011;90;48.810;9.120;2023-02-25T14:55:40;4.60;;;3.08;;
209;SDS011;90;48.810;9.120;2023-02-25T14:58:25;6.45;;;4.45;;
209;SDS011;90;48.810;9.120;2023-02-25T15:01:30;4.40;;;3.03;;
209;SDS011;90;48.810;9.120;2023-02-25T15:07:19;8.32;;;4.10;;
209;SDS011;90;48.810;9.120;2023-02-25T15:10:17;9.03;;;4.10;;
209;SDS011;90;48.810;9.120;2023-02-25T15:13:18;6.97;;;2.90;;
209;SDS011;90;48.810;9.120;2023-02-25T15:19:13;5.90;;;2.73;;
209;SDS011;90;48.810;9.120;2023-02-25T15:24:51;3.80;;;3.00;;
209;SDS011;90;48.810;9.120;2023-02-25T15:30:13;9.70;;;3.33;;
209;SDS011;90;48.810;9.120;2023-02-25T15:32:54;5.20;;;3.55;;
209;SDS011;90;48.810;9.120;2023-02-25T15:35:51;7.33;;;4.73;;
209;SDS011;90;48.810;9.120;2023-02-25T15:38:30;7.07;;;3.88;;
209;SDS011;90;48.810;9.120;2023-02-25T15:49:55;7.05;;;3.00;;
209;SDS011;90;48.810;9.120;2023-02-25T15:55:34;3.63;;;2.75;;
209;SDS011;90;48.810;9.120;2023-02-25T16:01:27;5.82;;;3.58;;
209;SDS011;90;48.810;9.120;2023-02-25T16:03:57;7.25;;;4.00;;
209;SDS011;90;48.810;9.120;2023-02-25T16:06:25;4.15;;;3.53;;
209;SDS011;90;48.810;9.120;2023-02-25T16:09:00;7.40;;;3.80;;
209;SDS011;90;48.810;9.120;2023-02-25T16:11:33;5.43;;;4.40;;
209;SDS011;90;48.810;9.120;2023-02-25T16:14:03;7.90;;;4.40;;
209;SDS011;90;48.810;9.120;2023-02-25T16:16:38;12.68;;;4.30;;
209;SDS011;90;48.810;9.120;2023-02-25T16:19:14;6.72;;;5.32;;
209;SDS011;90;48.810;9.120;2023-02-25T16:21:44;7.13;;;4.10;;
209;SDS011;90;48.810;9.120;2023-02-25T16:24:14;7.13;;;5.30;;
209;SDS011;90;48.810;9.120;2023-02-25T16:26:46;7.32;;;4.40;;
209;SDS011;90;48.810;9.120;2023-02-25T16:29:24;11.07;;;5.63;;
209;SDS011;90;48.810;9.120;2023-02-25T16:32:06;9.43;;;5.22;;
209;SDS011;90;48.810;9.120;2023-02-25T16:34:45;6.70;;;5.28;;
209;SDS011;90;48.810;9.120;2023-02-25T16:37:20;10.35;;;5.32;;
209;SDS011;90;48.810;9.120;2023-02-25T16:39:52;12.07;;;7.53;;
209;SDS011;90;48.810;9.120;2023-02-25T16:42:20;10.25;;;6.57;;
209;SDS011;90;48.810;9.120;2023-02-25T16:44:54;9.60;;;5.00;;
209;SDS011;90;48.810;9.120;2023-02-25T16:47:24;7.38;;;4.75;;
209;SDS011;90;48.810;9.120;2023-02-25T16:49:54;10.65;;;5.07;;
209;SDS011;90;48.810;9.120;2023-02-25T16:52:25;5.43;;;4.95;;
209;SDS011;90;48.810;9.120;2023-02-25T16:54:55;11.32;;;5.43;;
209;SDS011;90;48.810;9.120;2023-02-25T16:57:24;8.85;;;5.20;;
209;SDS011;90;48.810;9.120;2023-02-25T17:00:03;10.63;;;5.03;;
209;SDS011;90;48.810;9.120;2023-02-25T17:02:42;8.30;;;4.45;;
209;SDS011;90;48.810;9.120;2023-02-25T17:05:22;6.85;;;4.57;;
209;SDS011;90;48.810;9.120;2023-02-25T17:07:53;5.35;;;4.22;;
209;SDS011;90;48.810;9.120;2023-02-25T17:10:25;8.48;;;6.50;;
209;SDS011;90;48.810;9.120;2023-02-25T17:12:54;7.35;;;5.15;;
209;SDS011;90;48.810;9.120;2023-02-25T17:15:22;10.82;;;5.90;;
209;SDS011;90;48.810;9.120;2023-02-25T17:17:52;6.05;;;4.60;;
209;SDS011;90;48.810;9.120;2023-02-25T17:20:27;12.30;;;4.63;;
209;SDS011;90;48.810;9.120;2023-02-25T17:22:55;11.25;;;5.47;;
209;SDS011;90;48.810;9.120;2023-02-25T17:25:24;12.73;;;6.88;;
209;SDS011;90;48.810;9.120;2023-02-25T17:27:54;13.30;;;6.70;;
209;SDS011;90;48.810;9.120;2023-02-25T17:30:33;12.82;;;5.43;;
209;SDS011;90;48.810;9.120;2023-02-25T17:33:03;15.00;;;7.15;;
209;SDS011;90;48.810;9.120;2023-02-25T17:35:32;6.80;;;4.95;;
209;SDS011;90;48.810;9.120;2023-02-25T17:38:01;10.30;;;4.20;;
209;SDS011;90;48.810;9.120;2023-02-25T17:40:29;5.55;;;3.63;;
209;SDS011;90;48.810;9.120;2023-02-25T17:43:17;4.10;;;3.13;;